sensor_id;sensor_type;location;lat;lon;timestamp;pressure;altitude;pressure_sealevel;temperature;humidity
9676;BME280;4876;42.656;23.292;2023-05-01T00:00:08;94318.84;;;12.02;74.21
9676;BME280;4876;42.656;23.292;2023-05-01T00:02:35;94302.28;;;12.02;73.82
9676;BME280;4876;42.656;23.292;2023-05-01T00:05:02;94339.69;;;12.25;73.51
9676;BME280;4876;42.656;23.292;2023-05-01T00:07:29;94337.34;;;12.23;73.41
9676;BME280;4876;42.656;23.292;2023-05-01T00:09:56;94325.38;;;12.05;73.55
9676;BME280;4876;42.656;23.292;2023-05-01T00:12:24;94323.81;;;12.04;73.82
9676;BME280;4876;42.656;23.292;2023-05-01T00:14:52;94337.09;;;11.87;74.91
9676;BME280;4876;42.656;23.292;2023-05-01T00:17:19;94332.88;;;11.94;75.15
9676;BME280;4876;42.656;23.292;2023-05-01T00:19:50;94336.78;;;11.88;75.01
9676;BME280;4876;42.656;23.292;2023-05-01T00:22:17;94330.84;;;11.91;75.37
9676;BME280;4876;42.656;23.292;2023-05-01T00:24:44;94333.34;;;11.79;75.41
9676;BME280;4876;42.656;23.292;2023-05-01T00:27:13;94340.34;;;11.83;75.66
9676;BME280;4876;42.656;23.292;2023-05-01T00:29:41;94335.06;;;11.83;75.65
9676;BME280;4876;42.656;23.292;2023-05-01T00:32:08;94341.88;;;11.84;75.68
9676;BME280;4876;42.656;23.292;2023-05-01T00:34:35;94342.47;;;11.99;75.37
9676;BME280;4876;42.656;23.292;2023-05-01T00:37:01;94338.47;;;11.93;75.16
9676;BME280;4876;42.656;23.292;2023-05-01T00:39:28;94339.97;;;11.47;76.56
9676;BME280;4876;42.656;23.292;2023-05-01T00:41:55;94341.84;;;11.46;77.50
9676;BME280;4876;42.656;23.292;2023-05-01T00:44:21;94339.97;;;11.47;77.64
9676;BME280;4876;42.656;23.292;2023-05-01T00:46:50;94343.25;;;11.44;77.72
9676;BME280;4876;42.656;23.292;2023-05-01T00:49:17;94348.94;;;11.54;77.76
9676;BME280;4876;42.656;23.292;2023-05-01T00:51:46;94355.28;;;11.62;77.53
9676;BME280;4876;42.656;23.292;2023-05-01T00:54:14;94354.50;;;11.62;77.51
9676;BME280;4876;42.656;23.292;2023-05-01T00:56:42;94354.03;;;11.68;77.02
9676;BME280;4876;42.656;23.292;2023-05-01T00:59:09;94358.53;;;11.68;77.01
9676;BME280;4876;42.656;23.292;2023-05-01T01:01:36;94358.03;;;11.66;77.05
9676;BME280;4876;42.656;23.292;2023-05-01T01:04:04;94360.22;;;11.64;77.01
9676;BME280;4876;42.656;23.292;2023-05-01T01:06:36;94346.66;;;11.36;77.64
9676;BME280;4876;42.656;23.292;2023-05-01T01:09:13;94360.56;;;11.53;77.58
9676;BME280;4876;42.656;23.292;2023-05-01T01:11:48;94367.06;;;11.56;77.29
9676;BME280;4876;42.656;23.292;2023-05-01T01:14:25;94310.03;;;11.13;77.55
9676;BME280;4876;42.656;23.292;2023-05-01T01:16:56;94360.56;;;11.62;77.15
9676;BME280;4876;42.656;23.292;2023-05-01T01:19:57;94371.44;;;11.35;78.20
9676;BME280;4876;42.656;23.292;2023-05-01T01:22:34;94367.72;;;11.36;78.87
9676;BME280;4876;42.656;23.292;2023-05-01T01:25:21;94369.31;;;11.37;78.61
9676;BME280;4876;42.656;23.292;2023-05-01T01:28:16;94362.63;;;11.39;78.03
9676;BME280;4876;42.656;23.292;2023-05-01T01:31:10;94365.13;;;11.27;78.80
9676;BME280;4876;42.656;23.292;2023-05-01T01:33:54;94356.03;;;10.90;79.90
9676;BME280;4876;42.656;23.292;2023-05-01T01:36:33;94359.56;;;11.02;80.47
9676;BME280;4876;42.656;23.292;2023-05-01T01:39:09;94360.34;;;11.03;80.44
9676;BME280;4876;42.656;23.292;2023-05-01T01:41:39;94371.31;;;11.05;80.38
9676;BME280;4876;42.656;23.292;2023-05-01T01:44:13;94370.28;;;11.06;80.44
9676;BME280;4876;42.656;23.292;2023-05-01T01:46:46;94370.28;;;10.89;81.36
9676;BME280;4876;42.656;23.292;2023-05-01T01:49:18;94373.34;;;10.91;81.28
9676;BME280;4876;42.656;23.292;2023-05-01T01:51:46;94369.47;;;10.79;81.35
9676;BME280;4876;42.656;23.292;2023-05-01T01:54:17;94365.16;;;10.92;80.89
9676;BME280;4876;42.656;23.292;2023-05-01T01:56:45;94366.41;;;10.95;80.95
9676;BME280;4876;42.656;23.292;2023-05-01T01:59:13;94361.28;;;10.98;80.82
9676;BME280;4876;42.656;23.292;2023-05-01T02:01:42;94371.03;;;10.98;80.61
9676;BME280;4876;42.656;23.292;2023-05-01T02:04:10;94362.53;;;11.01;80.99
9676;BME280;4876;42.656;23.292;2023-05-01T02:06:40;94368.22;;;11.12;80.60
9676;BME280;4876;42.656;23.292;2023-05-01T02:09:08;94355.38;;;11.10;80.55
9676;BME280;4876;42.656;23.292;2023-05-01T02:11:36;94356.50;;;11.00;80.97
9676;BME280;4876;42.656;23.292;2023-05-01T02:14:04;94350.75;;;10.98;81.49
9676;BME280;4876;42.656;23.292;2023-05-01T02:16:33;94359.13;;;10.92;81.72
9676;BME280;4876;42.656;23.292;2023-05-01T02:19:03;94346.91;;;10.87;81.69
9676;BME280;4876;42.656;23.292;2023-05-01T02:21:32;94352.47;;;10.94;81.59
9676;BME280;4876;42.656;23.292;2023-05-01T02:24:01;94352.94;;;10.88;81.69
9676;BME280;4876;42.656;23.292;2023-05-01T02:26:28;94349.97;;;10.81;82.44
9676;BME280;4876;42.656;23.292;2023-05-01T02:28:56;94349.69;;;10.73;82.66
9676;BME280;4876;42.656;23.292;2023-05-01T02:31:23;94356.03;;;10.72;82.75
9676;BME280;4876;42.656;23.292;2023-05-01T02:33:50;94355.13;;;10.68;83.09
9676;BME280;4876;42.656;23.292;2023-05-01T02:36:17;94360.34;;;10.51;83.53
9676;BME280;4876;42.656;23.292;2023-05-01T02:38:44;94366.69;;;10.41;83.83
9676;BME280;4876;42.656;23.292;2023-05-01T02:41:14;94355.22;;;10.29;84.73
9676;BME280;4876;42.656;23.292;2023-05-01T02:43:42;94352.91;;;10.27;85.69
9676;BME280;4876;42.656;23.292;2023-05-01T02:46:12;94355.66;;;10.31;85.21
9676;BME280;4876;42.656;23.292;2023-05-01T02:48:40;94363.28;;;10.32;85.47
9676;BME280;4876;42.656;23.292;2023-05-01T02:51:08;94370.97;;;10.29;84.87
9676;BME280;4876;42.656;23.292;2023-05-01T02:53:35;94368.50;;;10.23;85.39
9676;BME280;4876;42.656;23.292;2023-05-01T02:56:04;94368.00;;;10.21;85.58
9676;BME280;4876;42.656;23.292;2023-05-01T02:58:33;94367.53;;;10.19;85.92
9676;BME280;4876;42.656;23.292;2023-05-01T03:01:00;94370.34;;;10.23;85.44
9676;BME280;4876;42.656;23.292;2023-05-01T03:03:27;94368.03;;;10.30;85.14
9676;BME280;4876;42.656;23.292;2023-05-01T03:05:54;94372.06;;;10.28;85.15
9676;BME280;4876;42.656;23.292;2023-05-01T03:08:21;94371.88;;;10.24;85.43
9676;BME280;4876;42.656;23.292;2023-05-01T03:10:49;94373.84;;;10.18;85.96
9676;BME280;4876;42.656;23.292;2023-05-01T03:13:16;94358.88;;;10.19;85.33
9676;BME280;4876;42.656;23.292;2023-05-01T03:15:44;94349.41;;;10.09;85.37
9676;BME280;4876;42.656;23.292;2023-05-01T03:18:11;94361.66;;;10.22;85.66
9676;BME280;4876;42.656;23.292;2023-05-01T03:20:38;94363.97;;;10.15;86.04
9676;BME280;4876;42.656;23.292;2023-05-01T03:23:04;94367.53;;;10.19;85.56
9676;BME280;4876;42.656;23.292;2023-05-01T03:25:32;94363.19;;;10.06;85.87
9676;BME280;4876;42.656;23.292;2023-05-01T03:27:58;94364.88;;;10.02;86.63
9676;BME280;4876;42.656;23.292;2023-05-01T03:30:25;94375.19;;;9.98;86.20
9676;BME280;4876;42.656;23.292;2023-05-01T03:32:53;94376.75;;;9.99;86.32
9676;BME280;4876;42.656;23.292;2023-05-01T03:35:20;94378.13;;;9.97;86.65
9676;BME280;4876;42.656;23.292;2023-05-01T03:37:47;94383.81;;;9.90;86.74
9676;BME280;4876;42.656;23.292;2023-05-01T03:40:14;94383.81;;;9.82;85.86
9676;BME280;4876;42.656;23.292;2023-05-01T03:42:41;94385.56;;;9.64;88.45
9676;BME280;4876;42.656;23.292;2023-05-01T03:45:08;94388.75;;;9.52;89.78
9676;BME280;4876;42.656;23.292;2023-05-01T03:47:35;94400.13;;;9.39;90.72
9676;BME280;4876;42.656;23.292;2023-05-01T03:50:04;94413.03;;;9.58;91.53
9676;BME280;4876;42.656;23.292;2023-05-01T03:52:31;94409.53;;;10.11;88.78
9676;BME280;4876;42.656;23.292;2023-05-01T03:54:58;94412.00;;;9.67;87.25
9676;BME280;4876;42.656;23.292;2023-05-01T03:57:25;94413.53;;;10.48;86.03
9676;BME280;4876;42.656;23.292;2023-05-01T03:59:52;94421.03;;;11.15;83.59
9676;BME280;4876;42.656;23.292;2023-05-01T04:02:19;94416.03;;;11.57;79.77
9676;BME280;4876;42.656;23.292;2023-05-01T04:04:45;94426.19;;;11.93;77.95
9676;BME280;4876;42.656;23.292;2023-05-01T04:07:13;94428.63;;;12.07;77.32
9676;BME280;4876;42.656;23.292;2023-05-01T04:09:40;94435.72;;;12.15;77.44
9676;BME280;4876;42.656;23.292;2023-05-01T04:12:08;94417.13;;;12.11;77.38
9676;BME280;4876;42.656;23.292;2023-05-01T04:14:34;94422.28;;;12.37;76.40
9676;BME280;4876;42.656;23.292;2023-05-01T04:17:01;94427.28;;;12.30;76.46
9676;BME280;4876;42.656;23.292;2023-05-01T04:19:28;94419.81;;;12.32;77.72
9676;BME280;4876;42.656;23.292;2023-05-01T04:21:54;94427.19;;;12.09;78.57
9676;BME280;4876;42.656;23.292;2023-05-01T04:24:23;94422.22;;;12.97;76.09
9676;BME280;4876;42.656;23.292;2023-05-01T04:26:50;94423.28;;;13.25;73.06
9676;BME280;4876;42.656;23.292;2023-05-01T04:29:16;94422.78;;;13.02;74.81
9676;BME280;4876;42.656;23.292;2023-05-01T04:31:43;94426.31;;;12.85;75.87
9676;BME280;4876;42.656;23.292;2023-05-01T04:34:10;94425.56;;;13.06;74.51
9676;BME280;4876;42.656;23.292;2023-05-01T04:36:37;94416.94;;;13.38;73.34
9676;BME280;4876;42.656;23.292;2023-05-01T04:39:03;94426.75;;;13.83;71.99
9676;BME280;4876;42.656;23.292;2023-05-01T04:41:32;94428.81;;;14.23;69.83
9676;BME280;4876;42.656;23.292;2023-05-01T04:43:58;94425.94;;;14.28;69.74
9676;BME280;4876;42.656;23.292;2023-05-01T04:46:25;94432.97;;;14.12;69.26
9676;BME280;4876;42.656;23.292;2023-05-01T04:48:52;94428.13;;;14.26;69.08
9676;BME280;4876;42.656;23.292;2023-05-01T04:51:19;94437.81;;;14.34;69.23
9676;BME280;4876;42.656;23.292;2023-05-01T04:53:45;94436.06;;;14.38;68.51
9676;BME280;4876;42.656;23.292;2023-05-01T04:56:12;94432.44;;;14.31;68.53
9676;BME280;4876;42.656;23.292;2023-05-01T04:58:40;94442.03;;;14.11;68.67
9676;BME280;4876;42.656;23.292;2023-05-01T05:01:07;94441.09;;;13.94;69.75
9676;BME280;4876;42.656;23.292;2023-05-01T05:03:34;94443.53;;;13.99;69.68
9676;BME280;4876;42.656;23.292;2023-05-01T05:06:01;94449.25;;;14.01;69.01
9676;BME280;4876;42.656;23.292;2023-05-01T05:08:28;94447.50;;;13.93;70.75
9676;BME280;4876;42.656;23.292;2023-05-01T05:10:56;94453.97;;;13.84;71.81
9676;BME280;4876;42.656;23.292;2023-05-01T05:13:24;94448.44;;;13.77;71.75
9676;BME280;4876;42.656;23.292;2023-05-01T05:15:52;94451.84;;;13.77;72.16
9676;BME280;4876;42.656;23.292;2023-05-01T05:18:19;94459.13;;;13.80;71.51
9676;BME280;4876;42.656;23.292;2023-05-01T05:20:46;94464.25;;;13.97;70.49
9676;BME280;4876;42.656;23.292;2023-05-01T05:23:13;94469.78;;;14.05;69.78
9676;BME280;4876;42.656;23.292;2023-05-01T05:25:39;94473.22;;;14.17;70.16
9676;BME280;4876;42.656;23.292;2023-05-01T05:28:06;94477.72;;;14.17;68.80
9676;BME280;4876;42.656;23.292;2023-05-01T05:30:33;94482.25;;;14.16;68.79
9676;BME280;4876;42.656;23.292;2023-05-01T05:33:02;94484.25;;;14.32;69.49
9676;BME280;4876;42.656;23.292;2023-05-01T05:35:29;94481.94;;;14.30;69.00
9676;BME280;4876;42.656;23.292;2023-05-01T05:37:56;94490.16;;;14.74;67.56
9676;BME280;4876;42.656;23.292;2023-05-01T05:40:23;94480.88;;;14.68;68.89
9676;BME280;4876;42.656;23.292;2023-05-01T05:42:50;94475.97;;;15.06;68.42
9676;BME280;4876;42.656;23.292;2023-05-01T05:45:17;94484.44;;;15.65;65.54
9676;BME280;4876;42.656;23.292;2023-05-01T05:47:44;94484.91;;;15.54;65.42
9676;BME280;4876;42.656;23.292;2023-05-01T05:50:12;94484.97;;;15.70;65.45
9676;BME280;4876;42.656;23.292;2023-05-01T05:52:39;94480.03;;;16.12;63.47
9676;BME280;4876;42.656;23.292;2023-05-01T05:55:07;94482.72;;;16.28;62.57
9676;BME280;4876;42.656;23.292;2023-05-01T05:57:34;94483.94;;;14.94;66.78
9676;BME280;4876;42.656;23.292;2023-05-01T06:00:02;94482.44;;;15.74;64.44
9676;BME280;4876;42.656;23.292;2023-05-01T06:02:29;94486.41;;;15.80;64.13
9676;BME280;4876;42.656;23.292;2023-05-01T06:04:56;94494.88;;;15.85;64.36
9676;BME280;4876;42.656;23.292;2023-05-01T06:07:25;94491.00;;;16.27;63.09
9676;BME280;4876;42.656;23.292;2023-05-01T06:09:53;94495.06;;;16.52;61.40
9676;BME280;4876;42.656;23.292;2023-05-01T06:12:19;94490.22;;;16.26;62.20
9676;BME280;4876;42.656;23.292;2023-05-01T06:14:46;94495.88;;;16.25;63.38
9676;BME280;4876;42.656;23.292;2023-05-01T06:17:13;94497.03;;;16.71;61.67
9676;BME280;4876;42.656;23.292;2023-05-01T06:19:40;94500.69;;;16.82;61.02
9676;BME280;4876;42.656;23.292;2023-05-01T06:22:07;94497.09;;;16.75;61.17
9676;BME280;4876;42.656;23.292;2023-05-01T06:24:35;94498.44;;;16.68;61.56
9676;BME280;4876;42.656;23.292;2023-05-01T06:27:04;94501.25;;;16.12;64.85
9676;BME280;4876;42.656;23.292;2023-05-01T06:29:31;94503.59;;;16.61;62.42
9676;BME280;4876;42.656;23.292;2023-05-01T06:31:57;94503.44;;;16.86;61.11
9676;BME280;4876;42.656;23.292;2023-05-01T06:34:24;94500.59;;;16.63;61.89
9676;BME280;4876;42.656;23.292;2023-05-01T06:36:51;94500.19;;;16.77;61.60
9676;BME280;4876;42.656;23.292;2023-05-01T06:39:18;94503.91;;;17.07;61.31
9676;BME280;4876;42.656;23.292;2023-05-01T06:41:46;94495.06;;;16.52;62.10
9676;BME280;4876;42.656;23.292;2023-05-01T06:44:13;94508.22;;;17.31;60.17
9676;BME280;4876;42.656;23.292;2023-05-01T06:46:40;94497.50;;;17.08;60.25
9676;BME280;4876;42.656;23.292;2023-05-01T06:49:07;94505.03;;;17.06;60.20
9676;BME280;4876;42.656;23.292;2023-05-01T06:51:34;94507.34;;;17.62;60.15
9676;BME280;4876;42.656;23.292;2023-05-01T06:54:00;94505.22;;;17.33;61.53
9676;BME280;4876;42.656;23.292;2023-05-01T06:56:27;94503.56;;;17.63;60.19
9676;BME280;4876;42.656;23.292;2023-05-01T06:58:55;94502.03;;;18.20;58.24
9676;BME280;4876;42.656;23.292;2023-05-01T07:01:22;94508.00;;;17.75;58.73
9676;BME280;4876;42.656;23.292;2023-05-01T07:03:49;94509.84;;;18.13;58.78
9676;BME280;4876;42.656;23.292;2023-05-01T07:06:15;94504.94;;;18.58;56.80
9676;BME280;4876;42.656;23.292;2023-05-01T07:08:42;94508.91;;;18.67;55.90
9676;BME280;4876;42.656;23.292;2023-05-01T07:11:09;94511.22;;;18.69;55.07
9676;BME280;4876;42.656;23.292;2023-05-01T07:13:36;94520.22;;;18.18;56.10
9676;BME280;4876;42.656;23.292;2023-05-01T07:16:06;94510.88;;;18.70;55.43
9676;BME280;4876;42.656;23.292;2023-05-01T07:18:33;94521.22;;;18.75;55.58
9676;BME280;4876;42.656;23.292;2023-05-01T07:21:00;94515.97;;;18.37;56.28
9676;BME280;4876;42.656;23.292;2023-05-01T07:23:26;94515.78;;;18.45;55.79
9676;BME280;4876;42.656;23.292;2023-05-01T07:25:53;94523.97;;;17.94;56.96
9676;BME280;4876;42.656;23.292;2023-05-01T07:28:21;94519.19;;;18.03;56.20
9676;BME280;4876;42.656;23.292;2023-05-01T07:30:48;94518.47;;;18.49;55.53
9676;BME280;4876;42.656;23.292;2023-05-01T07:33:16;94518.91;;;18.09;54.94
9676;BME280;4876;42.656;23.292;2023-05-01T07:35:43;94524.13;;;18.24;55.40
9676;BME280;4876;42.656;23.292;2023-05-01T07:38:09;94522.38;;;17.90;55.83
9676;BME280;4876;42.656;23.292;2023-05-01T07:40:36;94520.97;;;17.96;57.26
9676;BME280;4876;42.656;23.292;2023-05-01T07:43:03;94522.88;;;18.18;55.79
9676;BME280;4876;42.656;23.292;2023-05-01T07:45:31;94522.88;;;18.18;54.88
9676;BME280;4876;42.656;23.292;2023-05-01T07:47:58;94511.03;;;18.58;54.06
9676;BME280;4876;42.656;23.292;2023-05-01T07:50:26;94515.22;;;17.74;57.22
9676;BME280;4876;42.656;23.292;2023-05-01T07:52:53;94514.81;;;17.92;57.01
9676;BME280;4876;42.656;23.292;2023-05-01T07:55:20;94519.25;;;17.49;56.77
9676;BME280;4876;42.656;23.292;2023-05-01T07:57:47;94518.72;;;17.98;56.09
9676;BME280;4876;42.656;23.292;2023-05-01T08:00:15;94515.34;;;17.82;56.17
9676;BME280;4876;42.656;23.292;2023-05-01T08:02:43;94520.75;;;17.31;57.45
9676;BME280;4876;42.656;23.292;2023-05-01T08:05:10;94518.34;;;17.26;57.45
9676;BME280;4876;42.656;23.292;2023-05-01T08:07:38;94516.13;;;17.82;56.25
9676;BME280;4876;42.656;23.292;2023-05-01T08:10:05;94505.28;;;17.71;55.68
9676;BME280;4876;42.656;23.292;2023-05-01T08:12:32;94513.81;;;18.00;55.31
9676;BME280;4876;42.656;23.292;2023-05-01T08:14:59;94502.97;;;18.32;55.86
9676;BME280;4876;42.656;23.292;2023-05-01T08:17:26;94512.28;;;17.99;54.36
9676;BME280;4876;42.656;23.292;2023-05-01T08:19:52;94513.66;;;18.12;55.03
9676;BME280;4876;42.656;23.292;2023-05-01T08:22:21;94513.25;;;17.91;56.32
9676;BME280;4876;42.656;23.292;2023-05-01T08:24:49;94514.03;;;17.91;53.14
9676;BME280;4876;42.656;23.292;2023-05-01T08:27:16;94510.00;;;18.01;54.77
9676;BME280;4876;42.656;23.292;2023-05-01T08:29:43;94512.13;;;18.11;54.06
9676;BME280;4876;42.656;23.292;2023-05-01T08:32:09;94514.94;;;17.99;54.36
9676;BME280;4876;42.656;23.292;2023-05-01T08:34:36;94517.59;;;17.80;56.31
9676;BME280;4876;42.656;23.292;2023-05-01T08:37:03;94516.03;;;17.59;53.66
9676;BME280;4876;42.656;23.292;2023-05-01T08:39:30;94507.88;;;17.33;53.29
9676;BME280;4876;42.656;23.292;2023-05-01T08:41:58;94502.38;;;17.41;51.53
9676;BME280;4876;42.656;23.292;2023-05-01T08:44:25;94514.19;;;17.63;50.47
9676;BME280;4876;42.656;23.292;2023-05-01T08:47:01;94510.63;;;17.36;49.20
9676;BME280;4876;42.656;23.292;2023-05-01T08:49:32;94509.22;;;17.42;49.74
9676;BME280;4876;42.656;23.292;2023-05-01T08:52:01;94506.22;;;17.44;51.53
9676;BME280;4876;42.656;23.292;2023-05-01T08:54:30;94497.19;;;17.48;51.18
9676;BME280;4876;42.656;23.292;2023-05-01T08:57:01;94504.34;;;17.64;51.78
9676;BME280;4876;42.656;23.292;2023-05-01T08:59:29;94508.50;;;17.81;50.92
9676;BME280;4876;42.656;23.292;2023-05-01T09:01:59;94494.84;;;17.82;50.56
9676;BME280;4876;42.656;23.292;2023-05-01T09:04:29;94487.59;;;17.63;50.07
9676;BME280;4876;42.656;23.292;2023-05-01T09:06:57;94478.53;;;17.64;51.82
9676;BME280;4876;42.656;23.292;2023-05-01T09:09:25;94500.06;;;18.17;51.29
9676;BME280;4876;42.656;23.292;2023-05-01T09:11:53;94503.31;;;17.88;47.91
9676;BME280;4876;42.656;23.292;2023-05-01T09:14:22;94502.75;;;17.98;49.88
9676;BME280;4876;42.656;23.292;2023-05-01T09:16:49;94488.84;;;18.27;50.40
9676;BME280;4876;42.656;23.292;2023-05-01T09:19:25;94494.84;;;18.24;51.29
9676;BME280;4876;42.656;23.292;2023-05-01T09:21:52;94494.94;;;18.51;50.11
9676;BME280;4876;42.656;23.292;2023-05-01T09:24:21;94497.81;;;18.19;48.65
9676;BME280;4876;42.656;23.292;2023-05-01T09:26:49;94514.53;;;17.97;49.65
9676;BME280;4876;42.656;23.292;2023-05-01T09:29:36;94502.44;;;18.22;50.52
9676;BME280;4876;42.656;23.292;2023-05-01T09:32:12;94495.94;;;18.43;50.45
9676;BME280;4876;42.656;23.292;2023-05-01T09:34:40;94496.94;;;18.35;48.28
9676;BME280;4876;42.656;23.292;2023-05-01T09:37:10;94498.34;;;18.28;47.79
9676;BME280;4876;42.656;23.292;2023-05-01T09:39:38;94497.88;;;18.23;47.00
9676;BME280;4876;42.656;23.292;2023-05-01T09:42:05;94493.16;;;18.36;47.32
9676;BME280;4876;42.656;23.292;2023-05-01T09:44:39;94498.53;;;18.39;47.38
9676;BME280;4876;42.656;23.292;2023-05-01T09:47:07;94500.38;;;17.93;48.14
9676;BME280;4876;42.656;23.292;2023-05-01T09:49:44;94495.94;;;18.20;47.84
9676;BME280;4876;42.656;23.292;2023-05-01T09:52:12;94496.91;;;18.12;47.67
9676;BME280;4876;42.656;23.292;2023-05-01T09:54:40;94486.34;;;18.15;46.63
9676;BME280;4876;42.656;23.292;2023-05-01T09:57:06;94494.69;;;18.37;49.31
9676;BME280;4876;42.656;23.292;2023-05-01T09:59:34;94486.59;;;18.52;50.18
9676;BME280;4876;42.656;23.292;2023-05-01T10:02:01;94487.88;;;18.62;49.10
9676;BME280;4876;42.656;23.292;2023-05-01T10:04:31;94496.00;;;18.46;50.66
9676;BME280;4876;42.656;23.292;2023-05-01T10:07:10;94478.06;;;18.43;49.67
9676;BME280;4876;42.656;23.292;2023-05-01T10:09:38;94478.63;;;18.56;49.21
9676;BME280;4876;42.656;23.292;2023-05-01T10:12:05;94486.16;;;18.27;48.57
9676;BME280;4876;42.656;23.292;2023-05-01T10:14:32;94481.97;;;18.26;48.36
9676;BME280;4876;42.656;23.292;2023-05-01T10:17:16;94484.00;;;17.91;47.46
9676;BME280;4876;42.656;23.292;2023-05-01T10:19:44;94487.97;;;18.00;50.97
9676;BME280;4876;42.656;23.292;2023-05-01T10:22:12;94483.28;;;17.94;51.10
9676;BME280;4876;42.656;23.292;2023-05-01T10:24:39;94486.38;;;17.96;51.15
9676;BME280;4876;42.656;23.292;2023-05-01T10:27:06;94473.72;;;18.12;50.52
9676;BME280;4876;42.656;23.292;2023-05-01T10:29:34;94476.88;;;18.41;50.81
9676;BME280;4876;42.656;23.292;2023-05-01T10:32:02;94473.97;;;18.49;50.55
9676;BME280;4876;42.656;23.292;2023-05-01T10:34:32;94474.50;;;18.36;49.03
9676;BME280;4876;42.656;23.292;2023-05-01T10:37:04;94475.81;;;18.45;49.46
9676;BME280;4876;42.656;23.292;2023-05-01T10:39:35;94475.94;;;18.29;49.59
9676;BME280;4876;42.656;23.292;2023-05-01T10:42:03;94472.50;;;18.52;49.18
9676;BME280;4876;42.656;23.292;2023-05-01T10:44:31;94480.50;;;18.52;49.56
9676;BME280;4876;42.656;23.292;2023-05-01T10:46:59;94478.84;;;18.21;48.96
9676;BME280;4876;42.656;23.292;2023-05-01T10:50:02;94485.88;;;18.33;48.71
9676;BME280;4876;42.656;23.292;2023-05-01T10:52:29;94479.66;;;18.48;48.64
9676;BME280;4876;42.656;23.292;2023-05-01T10:57:50;94470.97;;;18.51;47.32
9676;BME280;4876;42.656;23.292;2023-05-01T11:00:18;94469.19;;;18.59;47.39
9676;BME280;4876;42.656;23.292;2023-05-01T11:02:45;94478.34;;;18.61;47.32
9676;BME280;4876;42.656;23.292;2023-05-01T11:05:12;94478.88;;;18.47;47.07
9676;BME280;4876;42.656;23.292;2023-05-01T11:07:38;94478.97;;;18.51;47.33
9676;BME280;4876;42.656;23.292;2023-05-01T11:10:24;94481.38;;;18.60;47.39
9676;BME280;4876;42.656;23.292;2023-05-01T11:12:52;94478.53;;;18.49;48.09
9676;BME280;4876;42.656;23.292;2023-05-01T11:15:32;94484.06;;;18.63;48.04
9676;BME280;4876;42.656;23.292;2023-05-01T11:17:59;94483.03;;;18.45;49.42
9676;BME280;4876;42.656;23.292;2023-05-01T11:20:52;94480.94;;;18.12;50.84
9676;BME280;4876;42.656;23.292;2023-05-01T11:23:20;94481.72;;;18.12;51.26
9676;BME280;4876;42.656;23.292;2023-05-01T11:25:47;94483.25;;;18.13;51.70
9676;BME280;4876;42.656;23.292;2023-05-01T11:28:20;94491.34;;;17.97;50.67
9676;BME280;4876;42.656;23.292;2023-05-01T11:30:47;94476.75;;;18.11;50.91
9676;BME280;4876;42.656;23.292;2023-05-01T11:33:21;94475.75;;;18.19;50.89
9676;BME280;4876;42.656;23.292;2023-05-01T11:35:59;94475.88;;;18.26;50.18
9676;BME280;4876;42.656;23.292;2023-05-01T11:38:27;94475.94;;;18.29;50.63
9676;BME280;4876;42.656;23.292;2023-05-01T11:40:56;94481.91;;;18.23;50.39
9676;BME280;4876;42.656;23.292;2023-05-01T11:43:25;94474.03;;;18.30;51.25
9676;BME280;4876;42.656;23.292;2023-05-01T11:45:53;94473.63;;;18.28;50.41
9676;BME280;4876;42.656;23.292;2023-05-01T11:48:26;94465.28;;;18.29;49.26
9676;BME280;4876;42.656;23.292;2023-05-01T11:50:53;94466.53;;;18.36;49.50
9676;BME280;4876;42.656;23.292;2023-05-01T11:53:20;94464.63;;;18.59;49.58
9676;BME280;4876;42.656;23.292;2023-05-01T11:55:47;94468.59;;;18.69;48.57
9676;BME280;4876;42.656;23.292;2023-05-01T11:58:14;94474.63;;;18.43;49.23
9676;BME280;4876;42.656;23.292;2023-05-01T12:00:42;94466.94;;;18.38;49.18
9676;BME280;4876;42.656;23.292;2023-05-01T12:03:10;94466.00;;;18.26;50.15
9676;BME280;4876;42.656;23.292;2023-05-01T12:05:38;94467.66;;;18.35;50.98
9676;BME280;4876;42.656;23.292;2023-05-01T12:08:12;94466.81;;;18.30;50.97
9676;BME280;4876;42.656;23.292;2023-05-01T12:10:40;94477.47;;;18.30;51.17
9676;BME280;4876;42.656;23.292;2023-05-01T12:13:08;94477.53;;;18.34;49.66
9676;BME280;4876;42.656;23.292;2023-05-01T12:15:37;94462.66;;;18.10;48.97
9676;BME280;4876;42.656;23.292;2023-05-01T12:18:06;94474.28;;;18.21;48.52
9676;BME280;4876;42.656;23.292;2023-05-01T12:20:35;94469.13;;;18.32;48.63
9676;BME280;4876;42.656;23.292;2023-05-01T12:23:02;94471.84;;;18.36;48.07
9676;BME280;4876;42.656;23.292;2023-05-01T12:25:31;94469.06;;;18.28;48.58
9676;BME280;4876;42.656;23.292;2023-05-01T12:28:00;94468.00;;;18.33;48.53
9676;BME280;4876;42.656;23.292;2023-05-01T12:30:27;94481.53;;;18.24;49.16
9676;BME280;4876;42.656;23.292;2023-05-01T12:32:55;94478.66;;;18.33;49.23
9676;BME280;4876;42.656;23.292;2023-05-01T12:35:29;94474.25;;;18.44;49.50
9676;BME280;4876;42.656;23.292;2023-05-01T12:37:57;94473.50;;;18.44;47.93
9676;BME280;4876;42.656;23.292;2023-05-01T12:40:24;94478.25;;;18.77;47.00
9676;BME280;4876;42.656;23.292;2023-05-01T12:42:55;94473.97;;;18.72;46.60
9676;BME280;4876;42.656;23.292;2023-05-01T12:45:23;94479.94;;;18.89;46.55
9676;BME280;4876;42.656;23.292;2023-05-01T12:47:50;94480.44;;;18.71;46.14
9676;BME280;4876;42.656;23.292;2023-05-01T12:50:18;94476.09;;;18.63;46.92
9676;BME280;4876;42.656;23.292;2023-05-01T12:52:47;94470.00;;;18.63;48.02
9676;BME280;4876;42.656;23.292;2023-05-01T12:55:14;94465.13;;;18.91;47.27
9676;BME280;4876;42.656;23.292;2023-05-01T12:57:52;94471.13;;;18.85;46.72
9676;BME280;4876;42.656;23.292;2023-05-01T13:00:19;94449.41;;;18.82;45.79
9676;BME280;4876;42.656;23.292;2023-05-01T13:02:47;94467.22;;;19.05;45.78
9676;BME280;4876;42.656;23.292;2023-05-01T13:05:14;94467.06;;;18.94;45.75
9676;BME280;4876;42.656;23.292;2023-05-01T13:07:48;94472.84;;;19.00;45.58
9676;BME280;4876;42.656;23.292;2023-05-01T13:10:28;94474.50;;;19.08;44.10
9676;BME280;4876;42.656;23.292;2023-05-01T13:12:57;94482.28;;;19.20;44.49
9676;BME280;4876;42.656;23.292;2023-05-01T13:15:24;94475.84;;;19.21;44.15
9676;BME280;4876;42.656;23.292;2023-05-01T13:17:50;94483.09;;;19.24;44.47
9676;BME280;4876;42.656;23.292;2023-05-01T13:20:24;94483.19;;;19.01;45.77
9676;BME280;4876;42.656;23.292;2023-05-01T13:22:53;94483.22;;;19.05;47.49